createdAt,value
2023-02-18T00:01:53.299Z,1.10
2023-02-18T00:04:43.529Z,1.30
2023-02-18T00:07:35.394Z,1.00
2023-02-18T00:10:25.300Z,1.10
2023-02-18T00:13:15.930Z,0.98
2023-02-18T00:16:12.810Z,0.90
2023-02-18T00:19:07.085Z,0.90
2023-02-18T00:21:57.283Z,1.00
2023-02-18T00:24:47.384Z,1.20
2023-02-18T00:27:37.695Z,1.10
2023-02-18T00:30:28.620Z,1.00
2023-02-18T00:33:18.983Z,1.10
2023-02-18T00:36:11.833Z,1.10
2023-02-18T00:39:04.641Z,1.10
2023-02-18T00:41:56.304Z,1.13
2023-02-18T00:44:46.472Z,1.02
2023-02-18T00:47:37.521Z,0.98
2023-02-18T00:50:27.556Z,1.35
2023-02-18T00:53:17.711Z,1.10
2023-02-18T00:56:10.322Z,1.17
2023-02-18T00:59:00.700Z,1.00
2023-02-18T01:01:50.942Z,1.33
2023-02-18T01:04:40.940Z,1.50
2023-02-18T01:07:31.353Z,1.40
2023-02-18T01:10:22.938Z,1.50
2023-02-18T01:13:15.044Z,1.30
2023-02-18T01:16:05.231Z,1.20
2023-02-18T01:18:55.358Z,1.40
2023-02-18T01:21:45.814Z,1.40
2023-02-18T01:24:36.272Z,1.60
2023-02-18T01:27:26.338Z,1.50
2023-02-18T01:30:18.118Z,1.55
2023-02-18T01:33:09.489Z,1.50
2023-02-18T01:36:02.485Z,1.45
2023-02-18T01:38:53.693Z,1.50
2023-02-18T01:41:44.132Z,1.80
2023-02-18T01:44:35.458Z,1.55
2023-02-18T01:47:25.476Z,1.30
2023-02-18T01:50:15.382Z,1.60
2023-02-18T01:53:06.312Z,1.65
2023-02-18T01:55:58.295Z,1.40
2023-02-18T01:58:50.018Z,1.75
2023-02-18T02:01:44.133Z,1.65
2023-02-18T02:04:34.963Z,1.60
2023-02-18T02:07:28.757Z,1.40
2023-02-18T02:10:20.142Z,1.30
2023-02-18T02:13:19.594Z,2.17
2023-02-18T02:16:19.643Z,1.50
2023-02-18T02:19:31.380Z,1.70
2023-02-18T02:22:54.657Z,2.00
2023-02-18T02:26:15.234Z,1.77
2023-02-18T02:29:32.484Z,1.90
2023-02-18T02:32:38.023Z,1.60
2023-02-18T02:35:44.397Z,2.00
2023-02-18T02:38:44.071Z,1.90
2023-02-18T02:42:09.970Z,1.65
2023-02-18T02:45:01.508Z,1.75
2023-02-18T02:48:08.575Z,2.00
2023-02-18T02:51:12.783Z,2.20
2023-02-18T02:54:13.484Z,2.10
2023-02-18T02:57:10.082Z,2.00
2023-02-18T03:00:10.447Z,2.10
2023-02-18T03:03:25.985Z,1.80
2023-02-18T03:06:50.641Z,2.20
2023-02-18T03:09:56.455Z,1.83
2023-02-18T03:13:16.334Z,1.85
2023-02-18T03:16:24.113Z,1.88
2023-02-18T03:19:24.781Z,1.98
2023-02-18T03:22:29.061Z,2.00
2023-02-18T03:25:21.560Z,1.80
2023-02-18T03:28:17.386Z,1.88
2023-02-18T03:31:13.158Z,2.00
2023-02-18T03:34:15.498Z,1.77
2023-02-18T03:37:08.766Z,1.67
2023-02-18T03:40:01.220Z,2.03
2023-02-18T03:42:51.854Z,1.80
2023-02-18T03:45:42.115Z,2.13
2023-02-18T03:48:32.409Z,1.95
2023-02-18T03:51:22.569Z,2.20
2023-02-18T03:54:14.573Z,2.05
2023-02-18T03:57:05.839Z,1.98
2023-02-18T03:59:55.955Z,2.28
2023-02-18T04:02:46.361Z,1.85
2023-02-18T04:05:36.571Z,2.05
2023-02-18T04:08:26.653Z,2.10
2023-02-18T04:11:17.120Z,1.83
2023-02-18T04:14:08.509Z,2.17
2023-02-18T04:16:58.944Z,2.13
2023-02-18T04:19:48.940Z,2.08
2023-02-18T04:22:39.060Z,2.63
2023-02-18T04:25:29.854Z,2.10
2023-02-18T04:28:20.194Z,1.95
2023-02-18T04:31:11.680Z,2.00
2023-02-18T04:34:01.769Z,2.00
2023-02-18T04:36:51.932Z,2.00
2023-02-18T04:39:42.163Z,2.53
2023-02-18T04:42:32.268Z,1.92
2023-02-18T04:45:22.322Z,2.28
2023-02-18T04:48:12.605Z,2.28
2023-02-18T04:51:03.769Z,1.90
2023-02-18T04:53:54.149Z,2.15
2023-02-18T04:56:44.549Z,1.88
2023-02-18T04:59:34.381Z,2.13
2023-02-18T05:02:24.187Z,2.13
2023-02-18T05:05:15.236Z,1.75
2023-02-18T05:08:05.617Z,2.05
2023-02-18T05:10:55.844Z,2.30
2023-02-18T05:13:45.733Z,2.00
2023-02-18T05:16:35.930Z,1.80
2023-02-18T05:19:26.046Z,1.92
2023-02-18T05:22:16.253Z,1.80
2023-02-18T05:25:06.751Z,1.70
2023-02-18T05:27:57.128Z,2.05
2023-02-18T05:30:47.191Z,1.85
2023-02-18T05:33:37.523Z,2.00
2023-02-18T05:36:27.828Z,2.20
2023-02-18T05:39:17.650Z,2.15
2023-02-18T05:42:07.831Z,2.20
2023-02-18T05:44:57.931Z,2.22
2023-02-18T05:47:48.393Z,2.13
2023-02-18T05:50:38.409Z,2.30
2023-02-18T05:53:28.346Z,1.90
2023-02-18T05:56:18.834Z,2.20
2023-02-18T05:59:09.385Z,2.00
2023-02-18T06:02:00.552Z,2.20
2023-02-18T06:04:50.887Z,1.95
2023-02-18T06:07:41.275Z,1.80
2023-02-18T06:10:31.190Z,1.98
2023-02-18T06:13:21.404Z,1.60
2023-02-18T06:16:12.081Z,1.88
2023-02-18T06:19:02.464Z,1.50
2023-02-18T06:21:52.207Z,1.60
2023-02-18T06:24:42.069Z,1.70
2023-02-18T06:27:31.989Z,1.88
2023-02-18T06:30:23.587Z,1.45
2023-02-18T06:33:14.486Z,1.50
2023-02-18T06:36:08.123Z,1.73
2023-02-18T06:38:59.241Z,1.60
2023-02-18T06:41:49.306Z,1.50
2023-02-18T06:44:39.149Z,1.80
2023-02-18T06:47:29.725Z,1.80
2023-02-18T06:50:19.725Z,1.70
2023-02-18T06:53:10.213Z,1.23
2023-02-18T06:56:00.600Z,1.50
2023-02-18T06:58:50.915Z,1.55
2023-02-18T07:01:40.806Z,1.73
2023-02-18T07:04:31.146Z,1.50
2023-02-18T07:07:21.082Z,1.55
2023-02-18T07:10:11.256Z,1.25
2023-02-18T07:13:01.677Z,1.13
2023-02-18T07:15:51.858Z,1.20
2023-02-18T07:18:41.736Z,1.10
2023-02-18T07:21:31.609Z,1.23
2023-02-18T07:24:22.075Z,1.20
2023-02-18T07:27:11.979Z,1.10
2023-02-18T07:30:01.891Z,1.40
2023-02-18T07:32:52.366Z,1.23
2023-02-18T07:35:42.208Z,1.67
2023-02-18T07:38:32.479Z,1.10
2023-02-18T07:41:23.471Z,1.00
2023-02-18T07:44:14.340Z,1.27
2023-02-18T07:47:06.596Z,1.70
2023-02-18T07:49:57.098Z,1.40
2023-02-18T07:52:47.317Z,1.50
2023-02-18T07:55:49.725Z,1.45
2023-02-18T07:58:40.136Z,1.80
2023-02-18T08:01:30.107Z,1.50
2023-02-18T08:04:20.276Z,1.50
2023-02-18T08:07:15.157Z,1.35
2023-02-18T08:10:05.861Z,1.33
2023-02-18T08:12:56.087Z,1.90
2023-02-18T08:15:46.311Z,1.60
2023-02-18T08:18:36.463Z,1.40
2023-02-18T08:21:26.794Z,2.03
2023-02-18T08:24:17.069Z,1.80
2023-02-18T08:27:07.162Z,1.50
2023-02-18T08:29:57.904Z,1.75
2023-02-18T08:32:48.346Z,1.77
2023-02-18T08:35:38.625Z,2.08
2023-02-18T08:38:29.028Z,1.75
2023-02-18T08:41:19.334Z,1.63
2023-02-18T08:44:09.714Z,2.28
2023-02-18T08:46:59.865Z,2.10
2023-02-18T08:49:49.834Z,1.90
2023-02-18T08:52:40.237Z,1.90
2023-02-18T08:55:31.872Z,2.20
2023-02-18T08:58:22.194Z,1.92
2023-02-18T09:01:13.556Z,1.88
2023-02-18T09:04:03.590Z,2.10
2023-02-18T09:06:53.921Z,2.08
2023-02-18T09:09:43.767Z,1.70
2023-02-18T09:12:34.174Z,1.98
2023-02-18T09:15:24.106Z,1.58
2023-02-18T09:18:14.499Z,1.65
2023-02-18T09:21:08.167Z,1.35
2023-02-18T09:23:58.802Z,2.10
2023-02-18T09:26:48.769Z,1.63
2023-02-18T09:29:40.585Z,1.30
2023-02-18T09:32:35.338Z,1.40
2023-02-18T09:35:25.783Z,1.10
2023-02-18T09:38:17.784Z,1.85
2023-02-18T09:41:21.546Z,1.20
2023-02-18T09:44:15.321Z,1.10
2023-02-18T09:47:13.176Z,1.05
2023-02-18T09:50:09.149Z,1.10
2023-02-18T09:53:00.745Z,1.20
2023-02-18T09:55:56.825Z,1.17
2023-02-18T09:58:48.462Z,1.15
2023-02-18T10:01:39.994Z,1.17
2023-02-18T10:04:40.350Z,0.90
2023-02-18T10:07:33.658Z,1.02
2023-02-18T10:10:43.340Z,1.70
2023-02-18T10:13:34.632Z,0.90
2023-02-18T10:16:25.731Z,1.10
2023-02-18T10:19:38.540Z,1.10
2023-02-18T10:22:29.951Z,0.90
2023-02-18T10:25:24.236Z,0.90
2023-02-18T10:28:17.103Z,1.10
2023-02-18T10:31:10.949Z,0.90
2023-02-18T10:34:25.301Z,1.15
2023-02-18T10:37:21.459Z,0.88
2023-02-18T10:40:22.290Z,0.90
2023-02-18T10:43:44.837Z,1.00
2023-02-18T10:46:45.411Z,1.30
2023-02-18T10:49:48.122Z,1.00
2023-02-18T10:52:42.363Z,1.70
2023-02-18T10:55:42.055Z,1.20
2023-02-18T10:58:36.942Z,1.05
2023-02-18T11:01:27.165Z,1.30
2023-02-18T11:04:20.307Z,1.08
2023-02-18T11:07:23.239Z,1.10
2023-02-18T11:10:19.392Z,0.90
2023-02-18T11:13:12.266Z,0.80
2023-02-18T11:16:06.078Z,1.15
2023-02-18T11:18:56.464Z,1.00
2023-02-18T11:21:46.314Z,0.90
2023-02-18T11:24:39.591Z,0.85
2023-02-18T11:27:44.245Z,1.30
2023-02-18T11:30:39.190Z,1.15
2023-02-18T11:33:40.461Z,1.10
2023-02-18T11:36:34.895Z,1.20
2023-02-18T11:39:27.204Z,1.20
2023-02-18T11:42:20.657Z,0.95
2023-02-18T11:45:27.057Z,1.50
2023-02-18T11:48:22.808Z,1.40
2023-02-18T11:51:17.461Z,1.13
2023-02-18T11:54:30.099Z,1.40
2023-02-18T11:57:26.322Z,1.42
2023-02-18T12:00:23.814Z,1.52
2023-02-18T12:03:29.013Z,1.45
2023-02-18T12:06:28.058Z,1.40
2023-02-18T12:09:40.401Z,1.40
2023-02-18T12:12:35.445Z,1.67
2023-02-18T12:15:34.372Z,1.48
2023-02-18T12:18:46.254Z,1.40
2023-02-18T12:21:42.320Z,1.30
2023-02-18T12:25:00.130Z,1.50
2023-02-18T12:28:25.097Z,1.42
2023-02-18T12:31:31.764Z,1.35
2023-02-18T12:34:37.301Z,1.50
2023-02-18T12:37:39.161Z,1.90
2023-02-18T12:40:38.640Z,1.60
2023-02-18T12:44:04.684Z,1.52
2023-02-18T12:47:22.342Z,1.50
2023-02-18T12:50:37.749Z,1.40
2023-02-18T12:53:50.128Z,1.92
2023-02-18T12:57:09.222Z,1.70
2023-02-18T13:00:20.374Z,1.70
2023-02-18T13:03:49.694Z,1.88
2023-02-18T13:07:14.357Z,1.58
2023-02-18T13:10:19.825Z,1.50
2023-02-18T13:13:42.144Z,1.83
2023-02-18T13:16:34.012Z,1.55
2023-02-18T13:19:33.718Z,1.63
2023-02-18T13:22:26.861Z,1.55
2023-02-18T13:25:18.460Z,1.63
2023-02-18T13:28:43.226Z,1.80
2023-02-18T13:32:10.855Z,1.92
2023-02-18T13:35:13.062Z,1.38
2023-02-18T13:38:15.274Z,1.80
2023-02-18T13:41:05.737Z,1.80
2023-02-18T13:43:56.080Z,1.80
2023-02-18T13:46:50.917Z,1.77
2023-02-18T13:49:41.245Z,1.83
2023-02-18T13:52:31.212Z,2.30
2023-02-18T13:55:25.847Z,1.60
2023-02-18T13:58:53.216Z,2.00
2023-02-18T14:01:49.712Z,1.92
2023-02-18T14:04:43.088Z,1.75
2023-02-18T14:07:33.072Z,1.90
2023-02-18T14:10:31.086Z,1.83
2023-02-18T14:13:42.633Z,1.70
2023-02-18T14:17:10.191Z,1.60
2023-02-18T14:20:00.626Z,1.92
2023-02-18T14:22:52.649Z,1.52
2023-02-18T14:26:07.632Z,2.03
2023-02-18T14:29:07.110Z,2.28
2023-02-18T14:32:09.796Z,1.88
2023-02-18T14:35:08.845Z,2.22
2023-02-18T14:38:22.361Z,2.17
2023-02-18T14:41:51.176Z,3.15
2023-02-18T14:45:14.432Z,2.78
2023-02-18T14:48:29.799Z,2.55
2023-02-18T14:51:24.010Z,2.53
2023-02-18T14:54:19.387Z,2.53
2023-02-18T14:57:15.592Z,2.20
2023-02-18T15:00:07.410Z,2.20
2023-02-18T15:03:00.973Z,2.60
2023-02-18T15:05:51.788Z,2.80
2023-02-18T15:08:42.170Z,2.83
2023-02-18T15:11:43.490Z,2.60
2023-02-18T15:14:40.049Z,2.20
2023-02-18T15:17:30.229Z,1.95
2023-02-18T15:20:20.299Z,1.95
2023-02-18T15:23:15.908Z,2.20
2023-02-18T15:26:09.676Z,2.10
2023-02-18T15:29:03.253Z,2.28
2023-02-18T15:31:57.648Z,2.75
2023-02-18T15:34:53.265Z,2.20
2023-02-18T15:37:51.937Z,2.42
2023-02-18T15:40:44.123Z,2.13
2023-02-18T15:43:35.699Z,2.35
2023-02-18T15:46:27.027Z,2.40
2023-02-18T15:49:21.135Z,2.42
2023-02-18T15:55:11.178Z,2.00
2023-02-18T15:58:15.724Z,2.17
2023-02-18T16:03:57.423Z,2.03
2023-02-18T16:06:51.406Z,2.17
2023-02-18T16:09:41.838Z,1.88
2023-02-18T16:12:33.058Z,2.17
2023-02-18T16:15:30.075Z,2.35
2023-02-18T16:18:29.949Z,2.40
2023-02-18T16:21:19.622Z,2.30
2023-02-18T16:24:28.220Z,2.70
2023-02-18T16:27:18.321Z,1.85
2023-02-18T16:30:35.323Z,2.00
2023-02-18T16:33:25.721Z,1.52
2023-02-18T16:36:16.949Z,1.80
2023-02-18T16:39:06.898Z,2.60
2023-02-18T16:41:56.925Z,2.00
2023-02-18T16:44:48.082Z,2.08
2023-02-18T16:47:39.146Z,2.03
2023-02-18T16:50:31.087Z,2.10
2023-02-18T16:53:21.236Z,2.22
2023-02-18T16:56:17.125Z,2.20
2023-02-18T16:59:07.738Z,2.08
2023-02-18T17:01:58.161Z,2.40
2023-02-18T17:04:48.245Z,2.20
2023-02-18T17:07:38.344Z,2.40
2023-02-18T17:10:28.194Z,2.28
2023-02-18T17:13:20.919Z,2.30
2023-02-18T17:16:11.043Z,2.30
2023-02-18T17:19:01.498Z,2.50
2023-02-18T17:21:51.512Z,2.35
2023-02-18T17:24:41.560Z,2.47
2023-02-18T17:27:31.791Z,2.97
2023-02-18T17:30:21.905Z,2.53
2023-02-18T17:33:15.531Z,2.83
2023-02-18T17:36:05.788Z,2.63
2023-02-18T17:38:57.059Z,3.10
2023-02-18T17:41:47.386Z,2.60
2023-02-18T17:44:38.752Z,2.30
2023-02-18T17:47:28.569Z,2.60
2023-02-18T17:50:18.537Z,2.53
2023-02-18T17:53:11.571Z,3.50
2023-02-18T17:56:02.226Z,3.50
2023-02-18T17:58:52.463Z,3.70
2023-02-18T18:01:43.289Z,2.97
2023-02-18T18:04:33.306Z,2.97
2023-02-18T18:07:23.740Z,3.10
2023-02-18T18:10:14.370Z,2.97
2023-02-18T18:13:09.348Z,2.75
2023-02-18T18:16:00.413Z,3.40
2023-02-18T18:18:50.669Z,3.53
2023-02-18T18:21:40.873Z,3.78
2023-02-18T18:24:30.712Z,3.30
2023-02-18T18:27:21.222Z,2.40
2023-02-18T18:30:12.062Z,2.78
2023-02-18T18:33:03.558Z,4.20
2023-02-18T18:35:56.021Z,3.08
2023-02-18T18:38:46.275Z,3.88
2023-02-18T18:41:36.658Z,4.05
2023-02-18T18:44:26.488Z,3.50
2023-02-18T18:47:16.578Z,3.38
2023-02-18T18:50:06.804Z,3.67
2023-02-18T18:52:57.317Z,3.45
2023-02-18T18:55:48.839Z,3.72
2023-02-18T18:58:39.162Z,3.58
2023-02-18T19:01:29.898Z,3.92
2023-02-18T19:04:20.997Z,3.53
2023-02-18T19:07:11.040Z,3.83
2023-02-18T19:10:01.361Z,4.25
2023-02-18T19:12:51.247Z,4.53
2023-02-18T19:15:41.783Z,4.55
2023-02-18T19:18:33.616Z,4.85
2023-02-18T19:21:23.771Z,4.28
2023-02-18T19:24:14.139Z,4.93
2023-02-18T19:27:04.029Z,4.80
2023-02-18T19:29:54.299Z,4.82
2023-02-18T19:32:45.692Z,6.25
2023-02-18T19:35:39.329Z,6.43
2023-02-18T19:38:29.267Z,6.82
2023-02-18T19:41:19.928Z,8.00
2023-02-18T19:44:09.963Z,7.65
2023-02-18T19:47:01.003Z,10.15
2023-02-18T19:49:52.207Z,5.32
2023-02-18T19:52:42.143Z,5.43
2023-02-18T19:55:32.279Z,5.03
2023-02-18T19:58:22.284Z,5.18
2023-02-18T20:01:13.708Z,5.20
2023-02-18T20:04:04.054Z,5.20
2023-02-18T20:06:54.316Z,5.78
2023-02-18T20:09:44.776Z,5.57
2023-02-18T20:12:34.988Z,5.68
2023-02-18T20:15:25.716Z,5.85
2023-02-18T20:18:15.585Z,5.90
2023-02-18T20:21:05.681Z,5.85
2023-02-18T20:23:55.701Z,5.72
2023-02-18T20:26:45.724Z,5.55
2023-02-18T20:29:36.429Z,5.05
2023-02-18T20:32:27.006Z,6.00
2023-02-18T20:35:17.427Z,5.00
2023-02-18T20:38:07.681Z,5.60
2023-02-18T20:41:14.350Z,5.38
2023-02-18T20:44:05.135Z,5.05
2023-02-18T20:46:58.637Z,4.72
2023-02-18T20:49:49.033Z,5.05
2023-02-18T20:52:39.809Z,4.82
2023-02-18T20:55:29.917Z,5.45
2023-02-18T20:58:19.844Z,5.07
2023-02-18T21:01:12.374Z,5.20
2023-02-18T21:04:02.721Z,5.53
2023-02-18T21:06:53.040Z,5.32
2023-02-18T21:09:43.310Z,5.13
2023-02-18T21:12:33.298Z,5.45
2023-02-18T21:15:24.029Z,5.55
2023-02-18T21:18:15.279Z,5.10
2023-02-18T21:21:08.230Z,5.72
2023-02-18T21:23:59.156Z,6.05
2023-02-18T21:26:49.488Z,5.78
2023-02-18T21:29:39.742Z,6.25
2023-02-18T21:32:29.779Z,5.53
2023-02-18T21:35:19.806Z,5.82
2023-02-18T21:38:10.432Z,5.40
2023-02-18T21:41:00.660Z,5.97
2023-02-18T21:43:51.539Z,5.85
2023-02-18T21:46:41.983Z,5.80
2023-02-18T21:49:32.427Z,5.57
2023-02-18T21:52:27.000Z,5.15
2023-02-18T21:55:16.968Z,4.93
2023-02-18T21:58:07.425Z,5.65
2023-02-18T22:00:58.178Z,4.55
2023-02-18T22:03:48.812Z,5.00
2023-02-18T22:06:38.906Z,4.47
2023-02-18T22:09:29.239Z,3.97
2023-02-18T22:12:21.390Z,4.18
2023-02-18T22:15:13.181Z,4.57
2023-02-18T22:18:03.021Z,5.03
2023-02-18T22:20:52.858Z,4.43
2023-02-18T22:23:43.138Z,4.30
2023-02-18T22:26:34.040Z,4.65
2023-02-18T22:29:24.429Z,4.00
2023-02-18T22:32:14.579Z,4.28
2023-02-18T22:35:04.993Z,4.38
2023-02-18T22:37:55.223Z,4.00
2023-02-18T22:40:45.330Z,4.25
2023-02-18T22:43:35.762Z,3.72
2023-02-18T22:46:26.788Z,3.88
2023-02-18T22:49:16.674Z,3.78
2023-02-18T22:52:06.511Z,3.67
2023-02-18T22:54:56.381Z,3.65
2023-02-18T22:57:46.759Z,3.47
2023-02-18T23:00:36.877Z,3.15
2023-02-18T23:03:28.218Z,3.28
2023-02-18T23:06:20.123Z,3.63
2023-02-18T23:09:19.568Z,3.70
2023-02-18T23:12:09.890Z,3.65
2023-02-18T23:14:59.749Z,3.70
2023-02-18T23:17:49.725Z,3.58
2023-02-18T23:20:58.266Z,4.00
2023-02-18T23:23:51.709Z,4.03
2023-02-18T23:26:41.995Z,4.03
2023-02-18T23:29:32.610Z,4.68
2023-02-18T23:32:23.422Z,4.60
2023-02-18T23:35:13.432Z,4.78
2023-02-18T23:38:03.612Z,3.95
2023-02-18T23:40:53.959Z,4.45
2023-02-18T23:43:44.857Z,4.20
2023-02-18T23:46:35.138Z,4.45
2023-02-18T23:49:26.507Z,4.00
2023-02-18T23:52:16.725Z,4.28
2023-02-18T23:55:06.664Z,3.65
2023-02-18T23:57:56.697Z,3.65
